Time;durP1;ratioP1;P1;durP2;ratioP2;P2;SDS_P1;SDS_P2;PMS_P1;PMS_P2;Temp;Humidity;BMP_temperature;BMP_pressure;BME280_temperature;BME280_humidity;BME280_pressure;Samples;Min_cycle;Max_cycle;Signal;HPM_P1;HPM_P2
2022/09/16 00:01:18;;;;;;;;;;;11.90;99.90;;;;;;4976652;28;20297;-80
2022/09/16 00:03:44;;;;;;;;;;;11.60;99.90;;;;;;4973627;28;19925;-84
2022/09/16 00:06:18;;;;;;;;;;;11.70;99.90;;;;;;4989223;28;19922;-79
2022/09/16 00:08:44;;;;;;;;;;;11.70;99.90;;;;;;4971223;28;19972;-84
2022/09/16 00:11:12;;;;;;;;;;;11.70;99.90;;;;;;4971695;28;19934;-82
2022/09/16 00:13:38;;;;;;;;;;;11.90;99.90;;;;;;4955512;28;19973;-81
2022/09/16 00:16:09;;;;;;;;;;;11.80;99.90;;;;;;4972047;28;19926;-81
2022/09/16 00:18:35;;;;;;;;;;;11.60;99.90;;;;;;4954746;28;19972;-83
2022/09/16 00:21:01;;;;;;;;;;;11.80;99.90;;;;;;4954734;28;20506;-82
2022/09/16 00:23:32;;;;;;;;;;;11.60;99.90;;;;;;4955658;28;20409;-83
2022/09/16 00:25:58;;;;;;;;;;;11.70;99.90;;;;;;4955456;28;19999;-81
2022/09/16 00:28:24;;;;;;;;;;;11.70;99.90;;;;;;4940851;28;20009;-80
2022/09/16 00:30:50;;;;;;;;;;;11.80;99.90;;;;;;4976354;28;20514;-79
2022/09/16 00:33:19;;;;;;;;;;;12.00;99.90;;;;;;4952688;28;19922;-79
2022/09/16 00:35:45;;;;;;;;;;;13.60;99.90;;;;;;4951789;28;19936;-79
2022/09/16 00:38:11;;;;;;;;;;;11.70;99.90;;;;;;4951576;28;19934;-78
2022/09/16 00:40:44;;;;;;;;;;;11.80;99.90;;;;;;4953879;28;19930;-84
2022/09/16 00:43:14;;;;;;;;;;;11.80;99.90;;;;;;4968292;28;20521;-79
2022/09/16 00:45:41;;;;;;;;;;;11.70;99.90;;;;;;4962431;28;19974;-84
2022/09/16 00:48:08;;;;;;;;;;;11.70;99.90;;;;;;4968326;28;20330;-81
2022/09/16 00:50:37;;;;;;;;;;;11.70;99.90;;;;;;4952422;28;19930;-80
2022/09/16 00:53:08;;;;;;;;;;;11.60;99.90;;;;;;4965683;28;19926;-81
2022/09/16 00:55:35;;;;;;;;;;;11.70;99.90;;;;;;4953340;28;19992;-78
2022/09/16 00:58:27;;;;;;;;;;;11.40;99.90;;;;;;4955880;28;19926;-80
2022/09/16 01:00:53;;;;;;;;;;;11.60;99.90;;;;;;4967038;28;19926;-78
2022/09/16 01:03:19;;;;;;;;;;;11.80;99.90;;;;;;4967954;28;20056;-78
2022/09/16 01:05:45;;;;;;;;;;;11.40;99.90;;;;;;4968454;28;19933;-79
2022/09/16 01:08:11;;;;;;;;;;;11.60;99.90;;;;;;4956377;28;20573;-78
2022/09/16 01:10:39;;;;;;;;;;;11.50;99.90;;;;;;4971050;28;19933;-83
2022/09/16 01:13:07;;;;;;;;;;;11.60;99.90;;;;;;4970863;28;19936;-78
2022/09/16 01:15:53;;;;;;;;;;;12.00;99.90;;;;;;4970202;28;20229;-78
2022/09/16 01:18:37;;;;;;;;;;;11.70;99.90;;;;;;4988831;28;19926;-81
2022/09/16 01:21:15;;;;;;;;;;;11.60;99.90;;;;;;4989254;28;19976;-77
2022/09/16 01:24:03;;;;;;;;;;;11.60;99.90;;;;;;4965154;28;19933;-78
2022/09/16 01:26:37;;;;;;;;;;;11.50;99.90;;;;;;5007793;28;19980;-81
2022/09/16 01:29:14;;;;;;;;;;;11.50;99.90;;;;;;4974111;28;19937;-85
2022/09/16 01:31:58;;;;;;;;;;;11.40;99.90;;;;;;4993090;28;19929;-78
2022/09/16 01:34:36;;;;;;;;;;;11.40;99.90;;;;;;4974153;28;20016;-82
2022/09/16 01:37:13;;;;;;;;;;;11.60;99.90;;;;;;4989891;28;19929;-84
2022/09/16 01:39:48;;;;;;;;;;;11.50;99.90;;;;;;4991914;28;20193;-79
2022/09/16 01:42:32;;;;;;;;;;;11.20;99.90;;;;;;4975035;28;20005;-80
2022/09/16 01:45:29;;;;;;;;;;;11.00;99.90;;;;;;4988898;28;19932;-80
2022/09/16 01:48:16;;;;;;;;;;;11.40;99.90;;;;;;4973767;28;19963;-79
2022/09/16 01:50:44;;;;;;;;;;;11.50;99.90;;;;;;4978892;28;19980;-78
2022/09/16 01:53:14;;;;;;;;;;;11.00;99.90;;;;;;4974845;28;20495;-78
2022/09/16 01:55:51;;;;;;;;;;;11.50;99.90;;;;;;4991013;28;19929;-80
2022/09/16 01:58:22;;;;;;;;;;;11.50;99.90;;;;;;4989627;28;19976;-80
2022/09/16 02:00:50;;;;;;;;;;;11.40;99.90;;;;;;4978875;28;20395;-80
2022/09/16 02:03:25;;;;;;;;;;;11.60;99.90;;;;;;4985895;28;20021;-80
2022/09/16 02:09:00;;;;;;;;;;;11.50;99.90;;;;;;5062151;23;19933;-82
2022/09/16 02:11:26;;;;;;;;;;;11.40;99.90;;;;;;4978762;28;19957;-83
2022/09/16 02:14:01;;;;;;;;;;;11.60;99.90;;;;;;4993311;28;20620;-88
2022/09/16 02:16:34;;;;;;;;;;;11.40;99.90;;;;;;4991000;28;20336;-79
2022/09/16 02:19:07;;;;;;;;;;;11.70;99.90;;;;;;4972908;28;19925;-89
2022/09/16 02:21:35;;;;;;;;;;;11.50;99.90;;;;;;4974942;28;20238;-78
2022/09/16 02:24:03;;;;;;;;;;;11.20;99.90;;;;;;4984329;28;19936;-79
2022/09/16 02:26:37;;;;;;;;;;;11.40;99.90;;;;;;4985705;28;19960;-80
2022/09/16 02:29:09;;;;;;;;;;;11.40;99.90;;;;;;4973663;28;20562;-80
2022/09/16 02:31:36;;;;;;;;;;;11.40;99.90;;;;;;4965293;28;21166;-78
2022/09/16 02:34:04;;;;;;;;;;;11.50;99.90;;;;;;4974988;28;20536;-79
2022/09/16 02:36:32;;;;;;;;;;;11.40;99.90;;;;;;4988061;28;19933;-79
2022/09/16 02:42:20;;;;;;;;;;;11.40;99.90;;;;;;5005778;28;19921;-86
2022/09/16 02:44:46;;;;;;;;;;;11.40;99.90;;;;;;4994253;28;19929;-85
2022/09/16 02:47:12;;;;;;;;;;;11.40;99.90;;;;;;4978632;28;19925;-82
2022/09/16 02:49:41;;;;;;;;;;;11.40;99.90;;;;;;4990652;28;20083;-80
2022/09/16 02:52:07;;;;;;;;;;;;;;;;;;4991670;28;19925;-83
2022/09/16 02:54:35;;;;;;;;;;;;;;;;;;4995460;28;20533;-84
2022/09/16 02:57:01;;;;;;;;;;;11.30;99.90;;;;;;4993244;28;19926;-84
2022/09/16 02:59:27;;;;;;;;;;;11.30;99.90;;;;;;4977494;28;20080;-81
2022/09/16 03:01:53;;;;;;;;;;;11.30;99.90;;;;;;4977447;28;19929;-79
2022/09/16 03:04:19;;;;;;;;;;;11.20;99.90;;;;;;4974306;28;19925;-80
2022/09/16 03:06:46;;;;;;;;;;;11.20;99.90;;;;;;4957374;28;19936;-82
2022/09/16 03:09:17;;;;;;;;;;;11.20;99.90;;;;;;4975779;28;20008;-83
2022/09/16 03:11:55;;;;;;;;;;;11.20;99.90;;;;;;4970799;28;19925;-82
2022/09/16 03:14:39;;;;;;;;;;;11.20;99.90;;;;;;4989530;28;19956;-80
2022/09/16 03:17:19;;;;;;;;;;;11.20;99.90;;;;;;4973385;28;20679;-80
2022/09/16 03:20:01;;;;;;;;;;;11.20;99.90;;;;;;4984247;28;19937;-80
2022/09/16 03:22:36;;;;;;;;;;;11.20;99.90;;;;;;4972874;28;20008;-82
2022/09/16 03:25:10;;;;;;;;;;;11.20;99.90;;;;;;4972622;28;19926;-81
2022/09/16 03:27:42;;;;;;;;;;;11.10;99.90;;;;;;4990082;28;19925;-82
2022/09/16 03:30:09;;;;;;;;;;;11.10;99.90;;;;;;4975821;28;19926;-83
2022/09/16 03:32:38;;;;;;;;;;;11.10;99.90;;;;;;4988387;28;20011;-81
2022/09/16 03:35:33;;;;;;;;;;;11.10;99.90;;;;;;4991273;28;20011;-84
2022/09/16 03:37:59;;;;;;;;;;;11.10;99.90;;;;;;4973761;28;19931;-81
2022/09/16 03:40:28;;;;;;;;;;;11.00;99.90;;;;;;4988691;28;19948;-83
2022/09/16 03:42:56;;;;;;;;;;;11.00;99.90;;;;;;4972963;28;20561;-81
2022/09/16 03:45:22;;;;;;;;;;;11.00;99.90;;;;;;4988757;28;19932;-82
2022/09/16 03:47:49;;;;;;;;;;;10.90;99.90;;;;;;4972782;28;19925;-79
2022/09/16 03:50:16;;;;;;;;;;;10.90;99.90;;;;;;4959780;28;19969;-80
2022/09/16 03:52:41;;;;;;;;;;;10.90;99.90;;;;;;4971859;28;20020;-81
2022/09/16 03:55:09;;;;;;;;;;;10.90;99.90;;;;;;4988748;28;20663;-81
2022/09/16 03:57:35;;;;;;;;;;;10.90;99.90;;;;;;4988100;28;19925;-80
2022/09/16 04:00:02;;;;;;;;;;;10.90;99.90;;;;;;4988585;28;19932;-81
2022/09/16 04:02:35;;;;;;;;;;;10.90;99.90;;;;;;4974449;28;20530;-81
2022/09/16 04:05:01;;;;;;;;;;;10.90;99.90;;;;;;4984121;28;20024;-79
2022/09/16 04:07:26;;;;;;;;;;;10.80;99.90;;;;;;4971947;28;19929;-81
2022/09/16 04:09:52;;;;;;;;;;;10.80;99.90;;;;;;4973236;28;19929;-81
2022/09/16 04:12:21;;;;;;;;;;;10.80;99.90;;;;;;4987765;28;20020;-79
2022/09/16 04:14:47;;;;;;;;;;;10.80;99.90;;;;;;4972023;28;20020;-79
2022/09/16 04:17:12;;;;;;;;;;;10.80;99.90;;;;;;4970710;28;19925;-80
2022/09/16 04:19:38;;;;;;;;;;;10.80;99.90;;;;;;4986892;28;19925;-88
2022/09/16 04:22:04;;;;;;;;;;;10.80;99.90;;;;;;4977564;28;19936;-87
2022/09/16 04:24:30;;;;;;;;;;;10.80;99.90;;;;;;4990920;28;19932;-85
2022/09/16 04:26:55;;;;;;;;;;;10.80;99.90;;;;;;4991456;28;19926;-85
2022/09/16 04:29:22;;;;;;;;;;;10.70;99.90;;;;;;4974956;28;19925;-84
2022/09/16 04:31:48;;;;;;;;;;;10.70;99.90;;;;;;4992844;28;19930;-83
2022/09/16 04:34:17;;;;;;;;;;;10.70;99.90;;;;;;5007979;28;19933;-84
2022/09/16 04:36:43;;;;;;;;;;;10.70;99.90;;;;;;4973910;28;19988;-84
2022/09/16 04:39:08;;;;;;;;;;;10.70;99.90;;;;;;4990145;28;19925;-83
2022/09/16 04:41:34;;;;;;;;;;;10.70;99.90;;;;;;4971966;28;19929;-84
2022/09/16 04:44:00;;;;;;;;;;;10.70;99.90;;;;;;4972348;28;20008;-80
2022/09/16 04:46:29;;;;;;;;;;;10.70;99.90;;;;;;4976418;28;20024;-80
2022/09/16 04:48:55;;;;;;;;;;;11.80;99.90;;;;;;4989908;28;19929;-84
2022/09/16 04:51:28;;;;;;;;;;;10.70;99.90;;;;;;4975571;28;19925;-81
2022/09/16 04:53:55;;;;;;;;;;;10.70;99.90;;;;;;4975419;28;19929;-83
2022/09/16 04:56:23;;;;;;;;;;;10.70;99.90;;;;;;4961509;28;19925;-83
2022/09/16 04:58:50;;;;;;;;;;;10.70;99.90;;;;;;4975277;28;19976;-85
2022/09/16 05:01:17;;;;;;;;;;;10.70;99.90;;;;;;4995124;28;19937;-79
2022/09/16 05:04:01;;;;;;;;;;;10.70;99.90;;;;;;5009880;28;19933;-89
2022/09/16 05:06:29;;;;;;;;;;;10.70;99.90;;;;;;4989056;28;19937;-78
2022/09/16 05:08:55;;;;;;;;;;;10.70;99.90;;;;;;4976223;28;19926;-78
2022/09/16 05:11:25;;;;;;;;;;;10.60;99.90;;;;;;4988256;28;19929;-82
2022/09/16 05:13:52;;;;;;;;;;;10.60;99.90;;;;;;4988497;28;19984;-81
2022/09/16 05:19:24;;;;;;;;;;;10.60;99.90;;;;;;4994072;28;19933;-84
2022/09/16 05:21:51;;;;;;;;;;;10.60;99.90;;;;;;4988850;28;19934;-79
2022/09/16 05:24:16;;;;;;;;;;;10.60;99.90;;;;;;4956270;28;20327;-78
2022/09/16 05:26:42;;;;;;;;;;;10.60;99.90;;;;;;4989618;28;19930;-77
2022/09/16 05:29:13;;;;;;;;;;;10.60;99.90;;;;;;4992213;28;20457;-78
2022/09/16 05:31:40;;;;;;;;;;;10.60;99.90;;;;;;4989314;28;19933;-79
2022/09/16 05:34:10;;;;;;;;;;;10.60;99.90;;;;;;4987598;28;19929;-78
2022/09/16 05:36:38;;;;;;;;;;;10.60;99.90;;;;;;4982624;28;19984;-77
2022/09/16 05:39:05;;;;;;;;;;;10.50;99.90;;;;;;4991415;28;19972;-77
2022/09/16 05:41:31;;;;;;;;;;;10.50;99.90;;;;;;5035360;23;19933;-77
2022/09/16 05:43:57;;;;;;;;;;;10.50;99.90;;;;;;4992873;28;19956;-77
2022/09/16 05:46:23;;;;;;;;;;;10.50;99.90;;;;;;5007941;28;20494;-78
2022/09/16 05:48:49;;;;;;;;;;;10.50;99.90;;;;;;5010011;28;20331;-77
2022/09/16 05:51:16;;;;;;;;;;;10.50;99.90;;;;;;5007377;28;19925;-78
2022/09/16 05:53:42;;;;;;;;;;;10.60;99.90;;;;;;4993123;28;20071;-81
2022/09/16 05:56:13;;;;;;;;;;;10.60;99.90;;;;;;4993464;28;21150;-77
2022/09/16 05:58:39;;;;;;;;;;;10.50;99.90;;;;;;4992480;28;19932;-77
2022/09/16 06:01:07;;;;;;;;;;;10.50;99.90;;;;;;4990375;28;19929;-78
2022/09/16 06:03:34;;;;;;;;;;;10.60;99.90;;;;;;4990032;28;19925;-77
2022/09/16 06:06:00;;;;;;;;;;;10.60;99.90;;;;;;4989316;28;19932;-80
2022/09/16 06:08:30;;;;;;;;;;;10.70;99.90;;;;;;4977897;28;19951;-87
2022/09/16 06:10:59;;;;;;;;;;;10.70;99.90;;;;;;4992613;28;19926;-90
2022/09/16 06:13:24;;;;;;;;;;;10.70;99.90;;;;;;4990033;28;19941;-80
2022/09/16 06:15:53;;;;;;;;;;;10.80;99.90;;;;;;4996947;28;19933;-82
2022/09/16 06:18:19;;;;;;;;;;;10.80;99.90;;;;;;5013559;28;19933;-78
2022/09/16 06:20:44;;;;;;;;;;;10.90;99.90;;;;;;4989495;28;20384;-84
2022/09/16 06:23:10;;;;;;;;;;;11.00;99.90;;;;;;5016572;28;19935;-78
2022/09/16 06:25:36;;;;;;;;;;;11.00;99.90;;;;;;5006943;28;20004;-78
2022/09/16 06:28:03;;;;;;;;;;;11.00;99.90;;;;;;5008795;28;19930;-83
2022/09/16 06:30:28;;;;;;;;;;;11.00;99.90;;;;;;4995050;28;19925;-78
2022/09/16 06:32:54;;;;;;;;;;;11.10;99.90;;;;;;4995409;28;20370;-78
2022/09/16 06:35:20;;;;;;;;;;;11.10;99.90;;;;;;4992937;28;19975;-84
2022/09/16 06:37:46;;;;;;;;;;;11.20;99.90;;;;;;4991441;28;19929;-80
2022/09/16 06:40:11;;;;;;;;;;;11.30;99.90;;;;;;4999420;28;19984;-80
2022/09/16 06:42:37;;;;;;;;;;;11.40;99.90;;;;;;4987327;28;19929;-79
2022/09/16 06:45:03;;;;;;;;;;;11.40;99.90;;;;;;4971887;28;20296;-78
2022/09/16 06:47:32;;;;;;;;;;;11.50;99.90;;;;;;4972327;28;20214;-77
2022/09/16 06:49:58;;;;;;;;;;;11.50;99.90;;;;;;4970925;28;19969;-77
2022/09/16 06:52:24;;;;;;;;;;;11.60;99.90;;;;;;4986751;28;19934;-78
2022/09/16 06:54:50;;;;;;;;;;;12.00;99.90;;;;;;4991140;28;19933;-78
2022/09/16 06:57:18;;;;;;;;;;;;;;;;;;4988750;28;19941;-79
2022/09/16 06:59:45;;;;;;;;;;;11.90;99.90;;;;;;4986193;28;19929;-78
2022/09/16 07:02:10;;;;;;;;;;;12.00;99.90;;;;;;4954842;28;19934;-80
2022/09/16 07:04:36;;;;;;;;;;;12.10;99.90;;;;;;4971263;28;19984;-77
2022/09/16 07:07:02;;;;;;;;;;;12.20;99.90;;;;;;4953035;28;20692;-78
2022/09/16 07:09:29;;;;;;;;;;;12.40;99.90;;;;;;4956115;28;19925;-78
2022/09/16 07:11:54;;;;;;;;;;;12.50;99.90;;;;;;4970663;28;20420;-78
2022/09/16 07:14:21;;;;;;;;;;;12.50;99.90;;;;;;4983526;28;19934;-76
2022/09/16 07:16:47;;;;;;;;;;;12.60;99.90;;;;;;4989078;28;20380;-78
2022/09/16 07:19:12;;;;;;;;;;;12.50;99.90;;;;;;4971776;28;19939;-78
2022/09/16 07:21:40;;;;;;;;;;;12.60;99.90;;;;;;4986314;28;19925;-77
2022/09/16 07:24:06;;;;;;;;;;;12.60;99.90;;;;;;4956936;28;19943;-77
2022/09/16 07:26:33;;;;;;;;;;;12.60;99.90;;;;;;4972760;28;20028;-78
2022/09/16 07:29:00;;;;;;;;;;;12.70;99.90;;;;;;4971892;28;20421;-78
2022/09/16 07:31:28;;;;;;;;;;;12.80;99.90;;;;;;4970388;28;20072;-75
2022/09/16 07:33:56;;;;;;;;;;;12.80;99.90;;;;;;4987937;28;19929;-78
2022/09/16 07:36:23;;;;;;;;;;;12.80;99.90;;;;;;4989909;28;20446;-80
2022/09/16 07:38:50;;;;;;;;;;;12.80;99.90;;;;;;4989552;28;20298;-80
2022/09/16 07:41:20;;;;;;;;;;;12.80;99.90;;;;;;4988759;28;19929;-83
2022/09/16 07:43:47;;;;;;;;;;;12.60;99.90;;;;;;4997182;28;19936;-81
2022/09/16 07:46:15;;;;;;;;;;;12.40;99.90;;;;;;4991760;28;19926;-78
2022/09/16 07:48:41;;;;;;;;;;;12.30;99.90;;;;;;5007555;28;20033;-83
2022/09/16 07:51:09;;;;;;;;;;;12.20;99.90;;;;;;5007497;28;20216;-81
2022/09/16 07:53:37;;;;;;;;;;;12.30;99.90;;;;;;5008206;28;19937;-79
2022/09/16 07:56:03;;;;;;;;;;;12.90;99.90;;;;;;5009931;28;19925;-79
2022/09/16 07:58:29;;;;;;;;;;;13.90;99.90;;;;;;5009687;28;19933;-82
2022/09/16 08:00:55;;;;;;;;;;;14.80;99.90;;;;;;5008514;28;19921;-80
2022/09/16 08:03:21;;;;;;;;;;;15.10;99.90;;;;;;4993156;28;19940;-81
2022/09/16 08:05:50;;;;;;;;;;;15.70;99.90;;;;;;5025732;28;20044;-80
2022/09/16 08:08:15;;;;;;;;;;;16.40;99.90;;;;;;5008050;28;20004;-79
2022/09/16 08:10:42;;;;;;;;;;;16.60;99.90;;;;;;5005810;28;19925;-86
2022/09/16 08:13:09;;;;;;;;;;;16.80;99.90;;;;;;4986881;28;19921;-77
2022/09/16 08:15:35;;;;;;;;;;;;;;;;;;4990939;28;19925;-80
2022/09/16 08:18:01;;;;;;;;;;;17.60;99.90;;;;;;4997666;28;19940;-82
2022/09/16 08:20:27;;;;;;;;;;;;;;;;;;5006011;28;19971;-76
2022/09/16 08:22:53;;;;;;;;;;;18.30;99.90;;;;;;4990041;28;20569;-77
2022/09/16 08:25:19;;;;;;;;;;;18.60;99.90;;;;;;4989077;28;19939;-79
2022/09/16 08:27:45;;;;;;;;;;;18.40;99.90;;;;;;5001245;28;20015;-75
2022/09/16 08:30:11;;;;;;;;;;;18.40;99.90;;;;;;4990213;28;20343;-77
2022/09/16 08:32:36;;;;;;;;;;;17.70;99.90;;;;;;4987952;28;19929;-77
2022/09/16 08:35:03;;;;;;;;;;;17.70;99.90;;;;;;4990770;28;20622;-77
2022/09/16 08:37:28;;;;;;;;;;;17.30;99.90;;;;;;5008346;28;20603;-76
2022/09/16 08:39:54;;;;;;;;;;;17.00;99.90;;;;;;4991063;28;19925;-76
2022/09/16 08:42:26;;;;;;;;;;;16.50;99.90;;;;;;4974611;28;19933;-87
2022/09/16 08:45:19;;;;;;;;;;;16.30;99.90;;;;;;5004849;28;19929;-78
2022/09/16 08:47:51;;;;;;;;;;;16.10;99.90;;;;;;4989212;28;19956;-78
2022/09/16 08:50:20;;;;;;;;;;;16.10;99.90;;;;;;5006991;28;19936;-81
2022/09/16 08:52:47;;;;;;;;;;;16.10;99.90;;;;;;4991412;28;19935;-81
2022/09/16 08:55:19;;;;;;;;;;;15.90;99.90;;;;;;4990613;28;20012;-77
2022/09/16 08:57:54;;;;;;;;;;;15.50;99.90;;;;;;4985107;28;19929;-84
2022/09/16 09:00:21;;;;;;;;;;;15.30;99.90;;;;;;5003860;28;19929;-83
2022/09/16 09:02:53;;;;;;;;;;;15.40;99.90;;;;;;4986748;28;19995;-74
2022/09/16 09:05:18;;;;;;;;;;;15.10;99.90;;;;;;4984024;28;19929;-81
2022/09/16 09:07:50;;;;;;;;;;;15.30;99.90;;;;;;4985972;28;20377;-74
2022/09/16 09:10:24;;;;;;;;;;;15.50;99.90;;;;;;4987649;28;19929;-75
2022/09/16 09:13:09;;;;;;;;;;;15.70;99.90;;;;;;4988761;28;19937;-77
2022/09/16 09:15:40;;;;;;;;;;;15.80;99.90;;;;;;4987057;28;19926;-80
2022/09/16 09:18:06;;;;;;;;;;;15.50;99.90;;;;;;4989881;28;19929;-78
2022/09/16 09:20:39;;;;;;;;;;;15.10;99.90;;;;;;4989910;28;19921;-78
2022/09/16 09:23:11;;;;;;;;;;;14.40;99.90;;;;;;5006342;28;19932;-79
2022/09/16 09:25:36;;;;;;;;;;;14.50;99.90;;;;;;5006276;28;19932;-74
2022/09/16 09:28:16;;;;;;;;;;;14.60;99.90;;;;;;5009817;28;19925;-76
2022/09/16 09:30:52;;;;;;;;;;;14.80;99.90;;;;;;5004396;28;20410;-76
2022/09/16 09:33:33;;;;;;;;;;;15.10;99.90;;;;;;4987212;28;19933;-75
2022/09/16 09:36:02;;;;;;;;;;;15.20;99.90;;;;;;4999608;28;19925;-80
2022/09/16 09:38:27;;;;;;;;;;;15.20;99.90;;;;;;5006320;28;20511;-75
2022/09/16 09:40:57;;;;;;;;;;;15.30;99.90;;;;;;5008135;28;20015;-76
2022/09/16 09:43:35;;;;;;;;;;;15.40;99.90;;;;;;5008038;28;20521;-76
2022/09/16 09:46:10;;;;;;;;;;;15.60;99.90;;;;;;5009968;28;20303;-75
2022/09/16 09:48:39;;;;;;;;;;;15.80;99.90;;;;;;5010129;28;19933;-78
2022/09/16 09:51:09;;;;;;;;;;;16.00;99.90;;;;;;5006029;28;19953;-77
2022/09/16 09:53:38;;;;;;;;;;;15.70;99.90;;;;;;4987492;28;19936;-77
2022/09/16 09:56:12;;;;;;;;;;;15.30;99.90;;;;;;4987563;28;19977;-77
2022/09/16 09:59:04;;;;;;;;;;;14.90;99.90;;;;;;5001260;28;20016;-76
2022/09/16 10:01:30;;;;;;;;;;;14.60;99.90;;;;;;4999862;28;19933;-76
2022/09/16 10:03:57;;;;;;;;;;;14.30;99.90;;;;;;4989326;28;19936;-75
2022/09/16 10:06:32;;;;;;;;;;;14.20;99.90;;;;;;4991560;28;19929;-76
2022/09/16 10:08:58;;;;;;;;;;;14.10;99.90;;;;;;5009699;28;19925;-75
2022/09/16 10:11:25;;;;;;;;;;;14.30;99.90;;;;;;4993156;28;19932;-77
2022/09/16 10:13:52;;;;;;;;;;;14.40;99.90;;;;;;4992990;28;20030;-77
2022/09/16 10:16:20;;;;;;;;;;;14.60;99.90;;;;;;5009293;28;20561;-76
2022/09/16 10:19:05;;;;;;;;;;;14.90;99.90;;;;;;5006431;28;19932;-76
2022/09/16 10:21:46;;;;;;;;;;;15.20;99.90;;;;;;5001639;28;20270;-76
2022/09/16 10:24:27;;;;;;;;;;;15.60;99.90;;;;;;4984748;28;19926;-74
2022/09/16 10:26:53;;;;;;;;;;;15.70;99.90;;;;;;5007321;28;20395;-78
2022/09/16 10:29:19;;;;;;;;;;;15.70;99.90;;;;;;4976496;28;19929;-74
2022/09/16 10:31:45;;;;;;;;;;;15.70;99.90;;;;;;4992552;28;19937;-75
2022/09/16 10:34:14;;;;;;;;;;;15.80;99.90;;;;;;5008862;28;19956;-78
2022/09/16 10:36:40;;;;;;;;;;;15.90;99.90;;;;;;5006813;28;19983;-76
2022/09/16 10:39:18;;;;;;;;;;;16.30;99.90;;;;;;4974379;28;19933;-77
2022/09/16 10:41:47;;;;;;;;;;;16.30;99.90;;;;;;5005211;28;19926;-76
2022/09/16 10:44:18;;;;;;;;;;;16.30;99.90;;;;;;4992511;28;20376;-73
2022/09/16 10:46:52;;;;;;;;;;;16.30;99.90;;;;;;5011989;28;19932;-76
2022/09/16 10:49:21;;;;;;;;;;;16.10;99.90;;;;;;4991037;28;19929;-75
2022/09/16 10:51:47;;;;;;;;;;;16.30;99.90;;;;;;5010303;28;19972;-75
2022/09/16 10:54:27;;;;;;;;;;;16.50;99.90;;;;;;5005905;28;19969;-76
2022/09/16 10:56:53;;;;;;;;;;;16.70;99.90;;;;;;5007644;28;19928;-75
2022/09/16 10:59:19;;;;;;;;;;;16.80;99.90;;;;;;4984146;28;20024;-79
2022/09/16 11:01:47;;;;;;;;;;;16.70;99.90;;;;;;4993863;28;19968;-75
2022/09/16 11:04:19;;;;;;;;;;;16.60;99.90;;;;;;5007504;28;19921;-76
2022/09/16 11:06:51;;;;;;;;;;;16.40;99.90;;;;;;4998883;28;19983;-76
2022/09/16 11:09:25;;;;;;;;;;;16.20;99.90;;;;;;5005232;28;19925;-83
2022/09/16 11:11:57;;;;;;;;;;;15.80;99.90;;;;;;4992633;28;19947;-78
2022/09/16 11:14:40;;;;;;;;;;;15.00;99.90;;;;;;5002131;28;20347;-77
2022/09/16 11:17:10;;;;;;;;;;;;;;;;;;4984687;28;19960;-75
2022/09/16 11:20:03;;;;;;;;;;;14.00;99.90;;;;;;4973536;28;20750;-77
2022/09/16 11:22:41;;;;;;;;;;;13.70;99.90;;;;;;4987559;28;19933;-77
2022/09/16 11:25:19;;;;;;;;;;;13.70;99.90;;;;;;5002848;28;19932;-75
2022/09/16 11:27:45;;;;;;;;;;;13.90;99.90;;;;;;5003931;28;19932;-75
2022/09/16 11:30:16;;;;;;;;;;;14.20;99.90;;;;;;4992158;28;19933;-75
2022/09/16 11:33:00;;;;;;;;;;;14.40;99.90;;;;;;5020205;28;20265;-77
2022/09/16 11:35:26;;;;;;;;;;;14.70;99.90;;;;;;5001094;28;20457;-75
2022/09/16 11:38:04;;;;;;;;;;;15.00;99.90;;;;;;4992380;28;19929;-75
2022/09/16 11:40:43;;;;;;;;;;;15.20;99.90;;;;;;5000944;28;19933;-77
2022/09/16 11:43:09;;;;;;;;;;;;;;;;;;4980936;28;20434;-75
2022/09/16 11:45:50;;;;;;;;;;;15.50;99.90;;;;;;5006106;28;19936;-76
2022/09/16 11:48:25;;;;;;;;;;;15.70;99.90;;;;;;4982687;28;19956;-77
2022/09/16 11:50:56;;;;;;;;;;;15.70;99.90;;;;;;4999985;28;20006;-76
2022/09/16 11:53:22;;;;;;;;;;;15.70;99.90;;;;;;5005795;28;20024;-74
2022/09/16 11:55:55;;;;;;;;;;;15.60;99.90;;;;;;5004337;28;20102;-77
2022/09/16 11:58:20;;;;;;;;;;;15.50;99.90;;;;;;4987281;28;19944;-75
2022/09/16 12:00:48;;;;;;;;;;;15.50;99.90;;;;;;4985846;28;19925;-76
2022/09/16 12:03:14;;;;;;;;;;;15.40;99.90;;;;;;4999562;28;19929;-76
2022/09/16 12:05:52;;;;;;;;;;;15.40;99.90;;;;;;5004373;28;20429;-75
2022/09/16 12:08:21;;;;;;;;;;;15.40;99.90;;;;;;4986456;28;19929;-75
2022/09/16 12:10:50;;;;;;;;;;;15.50;99.90;;;;;;5007286;28;19925;-76
2022/09/16 12:13:23;;;;;;;;;;;15.60;99.90;;;;;;5001238;28;20211;-76
2022/09/16 12:15:53;;;;;;;;;;;15.50;99.90;;;;;;4996411;28;20160;-76
2022/09/16 12:18:22;;;;;;;;;;;15.40;99.90;;;;;;4999832;28;19937;-77
2022/09/16 12:20:53;;;;;;;;;;;15.50;99.90;;;;;;4991141;28;19933;-76
2022/09/16 12:23:27;;;;;;;;;;;15.50;99.90;;;;;;4981378;28;20019;-77
2022/09/16 12:26:08;;;;;;;;;;;15.50;99.90;;;;;;4993992;28;19956;-77
2022/09/16 12:28:53;;;;;;;;;;;15.60;99.90;;;;;;4999966;28;19932;-78
2022/09/16 12:31:22;;;;;;;;;;;15.60;99.90;;;;;;4997618;28;19930;-75
2022/09/16 12:33:51;;;;;;;;;;;15.60;99.90;;;;;;4998249;28;19992;-78
2022/09/16 12:36:24;;;;;;;;;;;15.50;99.90;;;;;;5000574;28;19926;-78
2022/09/16 12:38:50;;;;;;;;;;;15.50;99.90;;;;;;4996606;28;19952;-75
2022/09/16 12:41:34;;;;;;;;;;;15.70;99.90;;;;;;4995673;28;19929;-77
2022/09/16 12:44:03;;;;;;;;;;;15.40;99.90;;;;;;5001491;28;19995;-77
2022/09/16 12:49:48;;;;;;;;;;;15.30;99.90;;;;;;5007917;28;19929;-76
2022/09/16 12:52:36;;;;;;;;;;;15.20;99.90;;;;;;4990257;28;19933;-76
2022/09/16 12:55:11;;;;;;;;;;;15.20;99.90;;;;;;4999226;28;19933;-78
2022/09/16 12:57:47;;;;;;;;;;;14.50;99.90;;;;;;5007466;28;19983;-75
2022/09/16 13:00:18;;;;;;;;;;;15.20;99.90;;;;;;5002966;28;19932;-79
2022/09/16 13:02:52;;;;;;;;;;;15.20;99.90;;;;;;5005776;28;19969;-75
2022/09/16 13:05:21;;;;;;;;;;;15.30;99.90;;;;;;4988559;28;20404;-76
2022/09/16 13:07:49;;;;;;;;;;;15.40;99.90;;;;;;5005927;28;19936;-76
2022/09/16 13:10:15;;;;;;;;;;;15.40;99.90;;;;;;4989428;28;20012;-81
2022/09/16 13:12:41;;;;;;;;;;;15.20;99.90;;;;;;4989481;28;20028;-76
2022/09/16 13:15:22;;;;;;;;;;;14.40;99.90;;;;;;5005312;28;19933;-78
2022/09/16 13:17:51;;;;;;;;;;;14.00;99.90;;;;;;5003551;28;20041;-77
2022/09/16 13:20:20;;;;;;;;;;;13.60;99.90;;;;;;4987831;28;20028;-78
2022/09/16 13:22:51;;;;;;;;;;;13.40;99.90;;;;;;5002653;28;19929;-78
2022/09/16 13:25:22;;;;;;;;;;;13.30;99.90;;;;;;5003671;28;20022;-76
2022/09/16 13:28:01;;;;;;;;;;;13.20;99.90;;;;;;4989126;28;19929;-76
2022/09/16 13:30:30;;;;;;;;;;;13.10;99.90;;;;;;4988373;28;19951;-80
2022/09/16 13:32:58;;;;;;;;;;;13.10;99.90;;;;;;4983724;28;19984;-77
2022/09/16 13:35:30;;;;;;;;;;;13.00;99.90;;;;;;4986461;28;19930;-77
2022/09/16 13:37:57;;;;;;;;;;;13.00;99.90;;;;;;4986669;28;20503;-79
2022/09/16 13:40:25;;;;;;;;;;;12.90;99.90;;;;;;4989619;28;19969;-76
2022/09/16 13:43:02;;;;;;;;;;;13.00;99.90;;;;;;5000058;28;19939;-78
2022/09/16 13:45:29;;;;;;;;;;;13.00;99.90;;;;;;4988324;28;19934;-77
2022/09/16 13:47:56;;;;;;;;;;;12.90;99.90;;;;;;4996938;28;20015;-77
2022/09/16 13:50:25;;;;;;;;;;;13.00;99.90;;;;;;5002751;28;19921;-81
2022/09/16 13:52:51;;;;;;;;;;;13.00;99.90;;;;;;5004609;28;20706;-80
2022/09/16 13:55:25;;;;;;;;;;;13.00;99.90;;;;;;5006030;28;19920;-77
2022/09/16 13:58:29;;;;;;;;;;;13.00;99.90;;;;;;5005626;28;19933;-78
2022/09/16 14:01:10;;;;;;;;;;;13.10;99.90;;;;;;4968291;28;19930;-78
2022/09/16 14:03:52;;;;;;;;;;;13.10;99.90;;;;;;4964403;28;20858;-77
2022/09/16 14:06:30;;;;;;;;;;;13.20;99.90;;;;;;4990172;28;19929;-75
2022/09/16 14:09:00;;;;;;;;;;;13.70;99.90;;;;;;5000802;28;20291;-77
2022/09/16 14:11:29;;;;;;;;;;;13.30;99.90;;;;;;4986599;28;19929;-75
2022/09/16 14:13:59;;;;;;;;;;;13.40;99.90;;;;;;5020440;28;20390;-76
2022/09/16 14:16:27;;;;;;;;;;;13.50;99.90;;;;;;5022404;28;19936;-76
2022/09/16 14:19:12;;;;;;;;;;;13.50;99.90;;;;;;5023005;28;19939;-78
2022/09/16 14:21:38;;;;;;;;;;;13.60;99.90;;;;;;4999768;28;19935;-79
2022/09/16 14:24:15;;;;;;;;;;;13.60;99.90;;;;;;5003390;28;19929;-80
2022/09/16 14:26:54;;;;;;;;;;;13.70;99.90;;;;;;4987928;28;19933;-76
2022/09/16 14:29:21;;;;;;;;;;;13.70;99.90;;;;;;5021882;28;20495;-76
2022/09/16 14:31:47;;;;;;;;;;;13.70;99.90;;;;;;5013641;28;19935;-84
2022/09/16 14:34:23;;;;;;;;;;;13.60;99.90;;;;;;4988879;28;19925;-77
2022/09/16 14:36:49;;;;;;;;;;;13.50;99.90;;;;;;5019722;28;20443;-76
2022/09/16 14:39:16;;;;;;;;;;;13.40;99.90;;;;;;4987815;28;19964;-77
2022/09/16 14:41:42;;;;;;;;;;;13.30;99.90;;;;;;5004371;28;20281;-77
2022/09/16 14:44:11;;;;;;;;;;;12.90;99.90;;;;;;5021954;28;19936;-79
2022/09/16 14:46:45;;;;;;;;;;;13.30;99.90;;;;;;5004157;28;19932;-78
2022/09/16 14:49:12;;;;;;;;;;;13.20;99.90;;;;;;5003648;28;19937;-77